Tombstone, AZ

11:17 PM MST on August 28, 2015 (GMT -0700)
N7BOO | | Change Station
CLOSE
Current Station
Personal Weather Station
Location: Tombstone, AZ
Elevation: 4472 ft
Nearby Weather Stations

Elev 4472 ft 31.73 °N, 110.05 °W | Updated 30 seconds ago

Clear
Clear
71.2 °F
Feels Like 75 °F
N
0.7
Wind Variable Wind from SE
Gusts 2.7 mph

Today
High -- | Low -- °F
--% Chance of Precip.
Yesterday
High -- | Low -- °F
Precip. -- in
5:53 AM 6:49 PM
Full, 100% visible
Pressure 30.14 in
Visibility 10.0 miles
Clouds Clear
Heat Index 75 °F
Dew Point 60 °F
Humidity 67%
Rainfall in
Snow Depth Not available.
UV 0 out of 12
Pollen 5.30 out of 12
Air Quality Not available.
Flu Activity Not available.
METAR KFHU 290558Z AUTO 22005KT 10SM CLR 25/13 A3014 RMK AO2 SLPNO T02480125 10314 20242 51003 $
Pressure 30.14 in
Visibility 10.0 miles
Clouds Clear
Heat Index 75 °F
Dew Point 60 °F
Humidity 67%
Rainfall in
Snow Depth Not available.
UV 0 out of 12
Pollen 5.30 out of 12
Air Quality Not available.
Flu Activity Not available.
METAR KFHU 290558Z AUTO 22005KT 10SM CLR 25/13 A3014 RMK AO2 SLPNO T02480125 10314 20242 51003 $

10-Day Weather Forecast

×

Almanac

Astronomy

Aug. 28, 2015 Rise Set
Actual Time
Civil Twilight
Nautical Twilight
Astronomical Twilight
Moon
Length of Visible Light
Length of Day
Tomorrow will be .
, % of the Moon is Illuminated

Today's Extremes

State Highs State Lows

Community

WunderPhotos

Upload Photos

1,850,622 photos uploaded!

WunderBlogs® & News

Nearby

Air Quality

  Air Quality AQ Index Pollutant
Not available.

Snow Depth

Station Depth Elevation

Earthquake Activity

City Distance Mag. Time & Date
Minimum magnitude displayed is 2.5.

Coastal Water Temperatures

Place Temperature

Stations

Nearby Weather Stations

Station Location Temp. Windchill Dew Point Humidity Wind Precip. Elev Updated Type